sensor_id;sensor_type;location;lat;lon;timestamp;P1;durP1;ratioP1;P2;durP2;ratioP2
68353;SDS011;55274;43.060;25.618;2023-07-13T00:00:27;18.23;;;11.00;;
68353;SDS011;55274;43.060;25.618;2023-07-13T00:02:54;17.27;;;10.55;;
68353;SDS011;55274;43.060;25.618;2023-07-13T00:05:20;16.90;;;11.13;;
68353;SDS011;55274;43.060;25.618;2023-07-13T00:07:47;16.27;;;11.05;;
68353;SDS011;55274;43.060;25.618;2023-07-13T00:10:13;19.95;;;12.13;;
68353;SDS011;55274;43.060;25.618;2023-07-13T00:12:39;17.52;;;11.73;;
68353;SDS011;55274;43.060;25.618;2023-07-13T00:15:07;19.50;;;11.93;;
68353;SDS011;55274;43.060;25.618;2023-07-13T00:17:39;18.70;;;12.68;;
68353;SDS011;55274;43.060;25.618;2023-07-13T00:20:05;22.25;;;13.27;;
68353;SDS011;55274;43.060;25.618;2023-07-13T00:22:32;17.80;;;12.48;;
68353;SDS011;55274;43.060;25.618;2023-07-13T00:24:58;18.85;;;11.43;;
68353;SDS011;55274;43.060;25.618;2023-07-13T00:27:24;17.02;;;11.05;;
68353;SDS011;55274;43.060;25.618;2023-07-13T00:29:51;18.55;;;11.20;;
68353;SDS011;55274;43.060;25.618;2023-07-13T00:32:18;18.40;;;11.90;;
68353;SDS011;55274;43.060;25.618;2023-07-13T00:34:44;19.63;;;11.25;;
68353;SDS011;55274;43.060;25.618;2023-07-13T00:37:09;17.80;;;11.30;;
68353;SDS011;55274;43.060;25.618;2023-07-13T00:39:36;19.98;;;11.27;;
68353;SDS011;55274;43.060;25.618;2023-07-13T00:42:02;19.42;;;12.07;;
68353;SDS011;55274;43.060;25.618;2023-07-13T00:44:29;17.83;;;10.57;;
68353;SDS011;55274;43.060;25.618;2023-07-13T00:46:55;19.98;;;11.27;;
68353;SDS011;55274;43.060;25.618;2023-07-13T00:49:23;20.17;;;11.27;;
68353;SDS011;55274;43.060;25.618;2023-07-13T00:51:53;22.00;;;10.77;;
68353;SDS011;55274;43.060;25.618;2023-07-13T00:54:32;19.63;;;10.68;;
68353;SDS011;55274;43.060;25.618;2023-07-13T00:57:06;15.20;;;10.07;;
68353;SDS011;55274;43.060;25.618;2023-07-13T00:59:35;16.90;;;10.82;;
68353;SDS011;55274;43.060;25.618;2023-07-13T01:02:05;18.50;;;11.55;;
68353;SDS011;55274;43.060;25.618;2023-07-13T01:04:30;14.73;;;10.15;;
68353;SDS011;55274;43.060;25.618;2023-07-13T01:06:56;15.80;;;10.25;;
68353;SDS011;55274;43.060;25.618;2023-07-13T01:09:23;15.68;;;10.57;;
68353;SDS011;55274;43.060;25.618;2023-07-13T01:11:49;17.45;;;10.07;;
68353;SDS011;55274;43.060;25.618;2023-07-13T01:14:15;22.67;;;10.77;;
68353;SDS011;55274;43.060;25.618;2023-07-13T01:16:42;19.65;;;10.38;;
68353;SDS011;55274;43.060;25.618;2023-07-13T01:19:32;19.23;;;10.73;;
68353;SDS011;55274;43.060;25.618;2023-07-13T01:22:06;20.00;;;11.18;;
68353;SDS011;55274;43.060;25.618;2023-07-13T01:24:38;17.90;;;10.27;;
68353;SDS011;55274;43.060;25.618;2023-07-13T01:27:05;16.80;;;10.23;;
68353;SDS011;55274;43.060;25.618;2023-07-13T01:29:33;17.77;;;10.75;;
68353;SDS011;55274;43.060;25.618;2023-07-13T01:32:10;18.70;;;10.15;;
68353;SDS011;55274;43.060;25.618;2023-07-13T01:34:37;17.63;;;10.00;;
68353;SDS011;55274;43.060;25.618;2023-07-13T01:37:07;18.67;;;10.75;;
68353;SDS011;55274;43.060;25.618;2023-07-13T01:39:34;16.20;;;9.00;;
68353;SDS011;55274;43.060;25.618;2023-07-13T01:42:00;16.08;;;10.77;;
68353;SDS011;55274;43.060;25.618;2023-07-13T01:44:26;20.05;;;10.32;;
68353;SDS011;55274;43.060;25.618;2023-07-13T01:46:52;18.05;;;10.65;;
68353;SDS011;55274;43.060;25.618;2023-07-13T01:49:18;16.63;;;10.13;;
68353;SDS011;55274;43.060;25.618;2023-07-13T01:51:44;14.18;;;9.82;;
68353;SDS011;55274;43.060;25.618;2023-07-13T01:54:09;17.58;;;9.25;;
68353;SDS011;55274;43.060;25.618;2023-07-13T01:56:35;17.63;;;10.23;;
68353;SDS011;55274;43.060;25.618;2023-07-13T01:59:01;15.48;;;10.27;;
68353;SDS011;55274;43.060;25.618;2023-07-13T02:01:27;19.92;;;10.77;;
68353;SDS011;55274;43.060;25.618;2023-07-13T02:03:52;17.25;;;10.55;;
68353;SDS011;55274;43.060;25.618;2023-07-13T02:06:18;21.15;;;10.93;;
68353;SDS011;55274;43.060;25.618;2023-07-13T02:08:44;17.48;;;10.32;;
68353;SDS011;55274;43.060;25.618;2023-07-13T02:11:10;14.85;;;9.57;;
68353;SDS011;55274;43.060;25.618;2023-07-13T02:13:36;15.23;;;10.32;;
68353;SDS011;55274;43.060;25.618;2023-07-13T02:16:02;16.52;;;10.10;;
68353;SDS011;55274;43.060;25.618;2023-07-13T02:18:28;15.95;;;9.57;;
68353;SDS011;55274;43.060;25.618;2023-07-13T02:20:53;85.13;;;15.88;;
68353;SDS011;55274;43.060;25.618;2023-07-13T02:23:19;53.45;;;11.70;;
68353;SDS011;55274;43.060;25.618;2023-07-13T02:25:45;21.45;;;10.35;;
68353;SDS011;55274;43.060;25.618;2023-07-13T02:28:11;18.70;;;10.75;;
68353;SDS011;55274;43.060;25.618;2023-07-13T02:30:37;17.90;;;10.13;;
68353;SDS011;55274;43.060;25.618;2023-07-13T02:33:03;37.50;;;12.05;;
68353;SDS011;55274;43.060;25.618;2023-07-13T02:35:29;19.65;;;9.75;;
68353;SDS011;55274;43.060;25.618;2023-07-13T02:37:55;87.75;;;15.23;;
68353;SDS011;55274;43.060;25.618;2023-07-13T02:40:21;42.10;;;12.00;;
68353;SDS011;55274;43.060;25.618;2023-07-13T02:42:47;18.15;;;9.95;;
68353;SDS011;55274;43.060;25.618;2023-07-13T02:45:13;25.90;;;10.18;;
68353;SDS011;55274;43.060;25.618;2023-07-13T02:47:40;23.60;;;11.13;;
68353;SDS011;55274;43.060;25.618;2023-07-13T02:50:06;63.85;;;12.93;;
68353;SDS011;55274;43.060;25.618;2023-07-13T02:52:33;28.38;;;11.75;;
68353;SDS011;55274;43.060;25.618;2023-07-13T02:54:59;34.03;;;10.93;;
68353;SDS011;55274;43.060;25.618;2023-07-13T02:57:24;17.05;;;9.65;;
68353;SDS011;55274;43.060;25.618;2023-07-13T02:59:50;21.88;;;10.10;;
68353;SDS011;55274;43.060;25.618;2023-07-13T03:02:16;15.68;;;9.30;;
68353;SDS011;55274;43.060;25.618;2023-07-13T03:04:42;22.95;;;10.85;;
68353;SDS011;55274;43.060;25.618;2023-07-13T03:07:08;19.42;;;10.50;;
68353;SDS011;55274;43.060;25.618;2023-07-13T03:09:34;39.60;;;11.85;;
68353;SDS011;55274;43.060;25.618;2023-07-13T03:12:01;65.97;;;11.93;;
68353;SDS011;55274;43.060;25.618;2023-07-13T03:14:27;45.50;;;12.85;;
68353;SDS011;55274;43.060;25.618;2023-07-13T03:16:53;21.35;;;10.57;;
68353;SDS011;55274;43.060;25.618;2023-07-13T03:19:19;27.42;;;11.27;;
68353;SDS011;55274;43.060;25.618;2023-07-13T03:21:46;20.92;;;11.02;;
68353;SDS011;55274;43.060;25.618;2023-07-13T03:24:11;14.85;;;9.68;;
68353;SDS011;55274;43.060;25.618;2023-07-13T03:26:37;22.25;;;10.05;;
68353;SDS011;55274;43.060;25.618;2023-07-13T03:29:03;20.95;;;10.77;;
68353;SDS011;55274;43.060;25.618;2023-07-13T03:31:34;24.95;;;11.32;;
68353;SDS011;55274;43.060;25.618;2023-07-13T03:34:01;89.00;;;21.92;;
68353;SDS011;55274;43.060;25.618;2023-07-13T03:36:29;30.92;;;11.55;;
68353;SDS011;55274;43.060;25.618;2023-07-13T03:38:57;34.08;;;10.68;;
68353;SDS011;55274;43.060;25.618;2023-07-13T03:41:25;34.55;;;11.57;;
68353;SDS011;55274;43.060;25.618;2023-07-13T03:43:51;42.78;;;11.93;;
68353;SDS011;55274;43.060;25.618;2023-07-13T03:46:17;25.85;;;10.93;;
68353;SDS011;55274;43.060;25.618;2023-07-13T03:48:44;16.98;;;9.50;;
68353;SDS011;55274;43.060;25.618;2023-07-13T03:51:11;74.03;;;19.48;;
68353;SDS011;55274;43.060;25.618;2023-07-13T03:53:40;106.80;;;24.73;;
68353;SDS011;55274;43.060;25.618;2023-07-13T03:56:08;83.93;;;22.23;;
68353;SDS011;55274;43.060;25.618;2023-07-13T03:58:35;55.55;;;14.80;;
68353;SDS011;55274;43.060;25.618;2023-07-13T04:01:04;40.88;;;12.82;;
68353;SDS011;55274;43.060;25.618;2023-07-13T04:03:31;19.25;;;10.77;;
68353;SDS011;55274;43.060;25.618;2023-07-13T04:05:58;28.88;;;13.10;;
68353;SDS011;55274;43.060;25.618;2023-07-13T04:08:34;52.92;;;16.23;;
68353;SDS011;55274;43.060;25.618;2023-07-13T04:11:02;47.72;;;14.38;;
68353;SDS011;55274;43.060;25.618;2023-07-13T04:13:30;25.80;;;10.43;;
68353;SDS011;55274;43.060;25.618;2023-07-13T04:15:56;31.23;;;12.35;;
68353;SDS011;55274;43.060;25.618;2023-07-13T04:18:21;23.83;;;10.18;;
68353;SDS011;55274;43.060;25.618;2023-07-13T04:20:48;38.20;;;12.35;;
68353;SDS011;55274;43.060;25.618;2023-07-13T04:23:15;25.27;;;10.65;;
68353;SDS011;55274;43.060;25.618;2023-07-13T04:25:48;21.50;;;10.38;;
68353;SDS011;55274;43.060;25.618;2023-07-13T04:28:18;20.25;;;10.73;;
68353;SDS011;55274;43.060;25.618;2023-07-13T04:33:14;43.40;;;12.57;;
68353;SDS011;55274;43.060;25.618;2023-07-13T04:35:42;27.55;;;11.77;;
68353;SDS011;55274;43.060;25.618;2023-07-13T04:38:09;24.55;;;11.63;;
68353;SDS011;55274;43.060;25.618;2023-07-13T04:40:36;31.98;;;13.20;;
68353;SDS011;55274;43.060;25.618;2023-07-13T04:43:02;17.88;;;10.38;;
68353;SDS011;55274;43.060;25.618;2023-07-13T04:45:28;18.25;;;10.93;;
68353;SDS011;55274;43.060;25.618;2023-07-13T04:47:54;57.53;;;13.32;;
68353;SDS011;55274;43.060;25.618;2023-07-13T04:50:20;15.57;;;11.48;;
68353;SDS011;55274;43.060;25.618;2023-07-13T04:52:51;20.58;;;13.07;;
68353;SDS011;55274;43.060;25.618;2023-07-13T04:55:17;29.85;;;16.35;;
68353;SDS011;55274;43.060;25.618;2023-07-13T04:57:43;62.90;;;19.73;;
68353;SDS011;55274;43.060;25.618;2023-07-13T05:00:09;27.50;;;13.13;;
68353;SDS011;55274;43.060;25.618;2023-07-13T05:02:37;55.60;;;13.35;;
68353;SDS011;55274;43.060;25.618;2023-07-13T05:05:03;33.90;;;12.07;;
68353;SDS011;55274;43.060;25.618;2023-07-13T05:07:29;34.30;;;14.30;;
68353;SDS011;55274;43.060;25.618;2023-07-13T05:09:57;48.03;;;14.25;;
68353;SDS011;55274;43.060;25.618;2023-07-13T05:12:25;35.55;;;14.00;;
68353;SDS011;55274;43.060;25.618;2023-07-13T05:14:52;55.30;;;18.75;;
68353;SDS011;55274;43.060;25.618;2023-07-13T05:17:17;33.65;;;16.40;;
68353;SDS011;55274;43.060;25.618;2023-07-13T05:19:43;36.35;;;15.75;;
68353;SDS011;55274;43.060;25.618;2023-07-13T05:22:09;59.30;;;18.30;;
68353;SDS011;55274;43.060;25.618;2023-07-13T05:24:35;41.47;;;16.55;;
68353;SDS011;55274;43.060;25.618;2023-07-13T05:27:01;37.20;;;15.68;;
68353;SDS011;55274;43.060;25.618;2023-07-13T05:29:27;31.80;;;14.65;;
68353;SDS011;55274;43.060;25.618;2023-07-13T05:31:52;28.60;;;13.20;;
68353;SDS011;55274;43.060;25.618;2023-07-13T05:34:18;44.25;;;13.85;;
68353;SDS011;55274;43.060;25.618;2023-07-13T05:36:44;23.60;;;13.30;;
68353;SDS011;55274;43.060;25.618;2023-07-13T05:39:10;22.10;;;11.73;;
68353;SDS011;55274;43.060;25.618;2023-07-13T05:41:36;30.15;;;12.18;;
68353;SDS011;55274;43.060;25.618;2023-07-13T05:44:03;23.10;;;11.15;;
68353;SDS011;55274;43.060;25.618;2023-07-13T05:46:29;24.65;;;12.20;;
68353;SDS011;55274;43.060;25.618;2023-07-13T05:48:56;22.23;;;11.50;;
68353;SDS011;55274;43.060;25.618;2023-07-13T05:51:21;28.20;;;14.82;;
68353;SDS011;55274;43.060;25.618;2023-07-13T05:53:47;31.13;;;16.55;;
68353;SDS011;55274;43.060;25.618;2023-07-13T05:56:13;31.63;;;17.40;;
68353;SDS011;55274;43.060;25.618;2023-07-13T05:58:39;34.15;;;17.05;;
68353;SDS011;55274;43.060;25.618;2023-07-13T06:01:05;32.63;;;16.63;;
68353;SDS011;55274;43.060;25.618;2023-07-13T06:03:35;23.40;;;13.18;;
68353;SDS011;55274;43.060;25.618;2023-07-13T06:06:04;35.60;;;18.35;;
68353;SDS011;55274;43.060;25.618;2023-07-13T06:08:30;22.70;;;10.32;;
68353;SDS011;55274;43.060;25.618;2023-07-13T06:13:43;21.13;;;9.98;;
68353;SDS011;55274;43.060;25.618;2023-07-13T06:16:09;19.80;;;9.85;;
68353;SDS011;55274;43.060;25.618;2023-07-13T06:18:36;19.35;;;10.18;;
68353;SDS011;55274;43.060;25.618;2023-07-13T06:21:21;23.65;;;9.68;;
68353;SDS011;55274;43.060;25.618;2023-07-13T06:23:48;30.45;;;10.85;;
68353;SDS011;55274;43.060;25.618;2023-07-13T06:26:16;23.00;;;10.63;;
68353;SDS011;55274;43.060;25.618;2023-07-13T06:28:42;25.40;;;10.27;;
68353;SDS011;55274;43.060;25.618;2023-07-13T06:31:09;22.42;;;10.82;;
68353;SDS011;55274;43.060;25.618;2023-07-13T06:33:37;27.92;;;10.43;;
68353;SDS011;55274;43.060;25.618;2023-07-13T06:36:04;19.67;;;10.10;;
68353;SDS011;55274;43.060;25.618;2023-07-13T06:38:31;28.20;;;10.23;;
68353;SDS011;55274;43.060;25.618;2023-07-13T06:40:57;22.35;;;9.23;;
68353;SDS011;55274;43.060;25.618;2023-07-13T06:43:22;15.48;;;8.80;;
68353;SDS011;55274;43.060;25.618;2023-07-13T06:45:50;19.67;;;8.60;;
68353;SDS011;55274;43.060;25.618;2023-07-13T06:48:17;23.08;;;9.57;;
68353;SDS011;55274;43.060;25.618;2023-07-13T06:50:44;27.85;;;9.82;;
68353;SDS011;55274;43.060;25.618;2023-07-13T06:53:11;22.55;;;7.68;;
68353;SDS011;55274;43.060;25.618;2023-07-13T06:55:37;16.23;;;7.32;;
68353;SDS011;55274;43.060;25.618;2023-07-13T06:58:03;30.15;;;8.35;;
68353;SDS011;55274;43.060;25.618;2023-07-13T07:00:29;25.63;;;9.30;;
68353;SDS011;55274;43.060;25.618;2023-07-13T07:02:56;48.33;;;10.77;;
68353;SDS011;55274;43.060;25.618;2023-07-13T07:05:22;18.20;;;8.05;;
68353;SDS011;55274;43.060;25.618;2023-07-13T07:07:49;15.90;;;7.70;;
68353;SDS011;55274;43.060;25.618;2023-07-13T07:10:16;10.98;;;7.18;;
68353;SDS011;55274;43.060;25.618;2023-07-13T07:12:42;77.88;;;12.82;;
68353;SDS011;55274;43.060;25.618;2023-07-13T07:15:08;34.05;;;8.95;;
68353;SDS011;55274;43.060;25.618;2023-07-13T07:17:35;31.67;;;7.45;;
68353;SDS011;55274;43.060;25.618;2023-07-13T07:20:01;50.40;;;9.07;;
68353;SDS011;55274;43.060;25.618;2023-07-13T07:22:28;15.00;;;7.47;;
68353;SDS011;55274;43.060;25.618;2023-07-13T07:24:55;22.58;;;8.25;;
68353;SDS011;55274;43.060;25.618;2023-07-13T07:27:22;18.25;;;7.32;;
68353;SDS011;55274;43.060;25.618;2023-07-13T07:29:48;29.00;;;7.72;;
68353;SDS011;55274;43.060;25.618;2023-07-13T07:32:14;81.82;;;13.05;;
68353;SDS011;55274;43.060;25.618;2023-07-13T07:34:39;19.88;;;6.78;;
68353;SDS011;55274;43.060;25.618;2023-07-13T07:37:05;17.92;;;7.00;;
68353;SDS011;55274;43.060;25.618;2023-07-13T07:39:31;21.48;;;6.78;;
68353;SDS011;55274;43.060;25.618;2023-07-13T07:41:59;15.00;;;7.20;;
68353;SDS011;55274;43.060;25.618;2023-07-13T07:44:25;25.48;;;7.57;;
68353;SDS011;55274;43.060;25.618;2023-07-13T07:46:52;22.88;;;6.82;;
68353;SDS011;55274;43.060;25.618;2023-07-13T07:49:18;31.80;;;7.50;;
68353;SDS011;55274;43.060;25.618;2023-07-13T07:51:43;20.08;;;6.97;;
68353;SDS011;55274;43.060;25.618;2023-07-13T07:54:09;23.75;;;7.00;;
68353;SDS011;55274;43.060;25.618;2023-07-13T07:56:35;23.33;;;7.57;;
68353;SDS011;55274;43.060;25.618;2023-07-13T07:59:01;19.35;;;6.90;;
68353;SDS011;55274;43.060;25.618;2023-07-13T08:01:26;17.67;;;6.85;;
68353;SDS011;55274;43.060;25.618;2023-07-13T08:03:52;21.83;;;8.20;;
68353;SDS011;55274;43.060;25.618;2023-07-13T08:06:18;23.75;;;7.68;;
68353;SDS011;55274;43.060;25.618;2023-07-13T08:08:46;23.13;;;8.23;;
68353;SDS011;55274;43.060;25.618;2023-07-13T08:11:12;18.55;;;6.95;;
68353;SDS011;55274;43.060;25.618;2023-07-13T08:13:38;18.02;;;7.13;;
68353;SDS011;55274;43.060;25.618;2023-07-13T08:16:04;26.85;;;7.45;;
68353;SDS011;55274;43.060;25.618;2023-07-13T08:18:31;30.20;;;7.53;;
68353;SDS011;55274;43.060;25.618;2023-07-13T08:20:57;51.72;;;9.90;;
68353;SDS011;55274;43.060;25.618;2023-07-13T08:23:24;17.25;;;8.20;;
68353;SDS011;55274;43.060;25.618;2023-07-13T08:25:53;14.48;;;7.57;;
68353;SDS011;55274;43.060;25.618;2023-07-13T08:28:20;39.92;;;7.15;;
68353;SDS011;55274;43.060;25.618;2023-07-13T08:30:46;12.07;;;4.80;;
68353;SDS011;55274;43.060;25.618;2023-07-13T08:33:17;14.45;;;5.57;;
68353;SDS011;55274;43.060;25.618;2023-07-13T08:35:50;8.48;;;5.05;;
68353;SDS011;55274;43.060;25.618;2023-07-13T08:38:16;38.05;;;7.25;;
68353;SDS011;55274;43.060;25.618;2023-07-13T08:40:43;11.52;;;4.28;;
68353;SDS011;55274;43.060;25.618;2023-07-13T08:43:13;9.77;;;5.22;;
68353;SDS011;55274;43.060;25.618;2023-07-13T08:48:35;9.32;;;4.13;;
68353;SDS011;55274;43.060;25.618;2023-07-13T08:54:00;37.78;;;6.15;;
68353;SDS011;55274;43.060;25.618;2023-07-13T08:56:30;13.80;;;3.97;;
68353;SDS011;55274;43.060;25.618;2023-07-13T08:59:17;11.40;;;4.28;;
68353;SDS011;55274;43.060;25.618;2023-07-13T09:04:34;6.78;;;3.65;;
68353;SDS011;55274;43.060;25.618;2023-07-13T09:15:31;8.88;;;3.40;;
68353;SDS011;55274;43.060;25.618;2023-07-13T09:18:02;6.00;;;3.47;;
68353;SDS011;55274;43.060;25.618;2023-07-13T09:21:03;5.68;;;3.38;;
68353;SDS011;55274;43.060;25.618;2023-07-13T09:23:36;34.92;;;5.32;;
68353;SDS011;55274;43.060;25.618;2023-07-13T09:28:46;11.50;;;3.60;;
68353;SDS011;55274;43.060;25.618;2023-07-13T09:31:16;9.55;;;3.33;;
68353;SDS011;55274;43.060;25.618;2023-07-13T09:33:56;5.65;;;3.08;;
68353;SDS011;55274;43.060;25.618;2023-07-13T09:36:24;6.28;;;2.92;;
68353;SDS011;55274;43.060;25.618;2023-07-13T09:41:37;6.47;;;3.00;;
68353;SDS011;55274;43.060;25.618;2023-07-13T09:46:42;10.93;;;3.85;;
68353;SDS011;55274;43.060;25.618;2023-07-13T09:49:10;6.35;;;3.25;;
68353;SDS011;55274;43.060;25.618;2023-07-13T09:51:40;7.68;;;3.25;;
68353;SDS011;55274;43.060;25.618;2023-07-13T09:54:27;76.82;;;13.65;;
68353;SDS011;55274;43.060;25.618;2023-07-13T09:56:54;11.13;;;3.28;;
68353;SDS011;55274;43.060;25.618;2023-07-13T09:59:29;10.52;;;4.10;;
68353;SDS011;55274;43.060;25.618;2023-07-13T10:01:56;9.05;;;3.60;;
68353;SDS011;55274;43.060;25.618;2023-07-13T10:04:26;6.75;;;3.15;;
68353;SDS011;55274;43.060;25.618;2023-07-13T10:07:07;6.05;;;3.28;;
68353;SDS011;55274;43.060;25.618;2023-07-13T10:09:34;15.00;;;3.55;;
68353;SDS011;55274;43.060;25.618;2023-07-13T10:12:00;86.75;;;10.55;;
68353;SDS011;55274;43.060;25.618;2023-07-13T10:14:26;12.68;;;3.83;;
68353;SDS011;55274;43.060;25.618;2023-07-13T10:16:58;10.38;;;3.95;;
68353;SDS011;55274;43.060;25.618;2023-07-13T10:19:33;6.82;;;3.65;;
68353;SDS011;55274;43.060;25.618;2023-07-13T10:24:54;9.77;;;4.20;;
68353;SDS011;55274;43.060;25.618;2023-07-13T10:27:32;4.78;;;3.45;;
68353;SDS011;55274;43.060;25.618;2023-07-13T10:30:23;8.07;;;3.72;;
68353;SDS011;55274;43.060;25.618;2023-07-13T10:32:53;7.50;;;3.63;;
68353;SDS011;55274;43.060;25.618;2023-07-13T10:35:19;56.13;;;7.15;;
68353;SDS011;55274;43.060;25.618;2023-07-13T10:37:49;6.10;;;3.08;;
68353;SDS011;55274;43.060;25.618;2023-07-13T10:40:31;6.45;;;4.40;;
68353;SDS011;55274;43.060;25.618;2023-07-13T10:43:18;8.95;;;3.63;;
68353;SDS011;55274;43.060;25.618;2023-07-13T10:45:52;10.30;;;4.22;;
68353;SDS011;55274;43.060;25.618;2023-07-13T10:48:19;7.22;;;3.65;;
68353;SDS011;55274;43.060;25.618;2023-07-13T10:50:48;8.50;;;3.05;;
68353;SDS011;55274;43.060;25.618;2023-07-13T10:53:22;3.55;;;2.35;;
68353;SDS011;55274;43.060;25.618;2023-07-13T10:55:59;6.63;;;3.22;;
68353;SDS011;55274;43.060;25.618;2023-07-13T11:04:17;62.53;;;8.27;;
68353;SDS011;55274;43.060;25.618;2023-07-13T11:09:17;30.75;;;5.30;;
68353;SDS011;55274;43.060;25.618;2023-07-13T11:11:52;4.55;;;2.55;;
68353;SDS011;55274;43.060;25.618;2023-07-13T11:14:28;42.65;;;5.20;;
68353;SDS011;55274;43.060;25.618;2023-07-13T11:16:54;19.40;;;3.80;;
68353;SDS011;55274;43.060;25.618;2023-07-13T11:27:43;8.25;;;2.72;;
68353;SDS011;55274;43.060;25.618;2023-07-13T11:33:03;4.47;;;2.45;;
68353;SDS011;55274;43.060;25.618;2023-07-13T11:35:52;14.70;;;3.00;;
68353;SDS011;55274;43.060;25.618;2023-07-13T11:38:20;11.30;;;3.28;;
68353;SDS011;55274;43.060;25.618;2023-07-13T11:40:50;8.02;;;2.75;;
68353;SDS011;55274;43.060;25.618;2023-07-13T11:43:19;9.60;;;3.20;;
68353;SDS011;55274;43.060;25.618;2023-07-13T11:45:49;5.70;;;2.55;;
68353;SDS011;55274;43.060;25.618;2023-07-13T11:48:26;10.43;;;3.00;;
68353;SDS011;55274;43.060;25.618;2023-07-13T11:50:58;4.60;;;2.55;;
68353;SDS011;55274;43.060;25.618;2023-07-13T11:53:29;4.78;;;2.80;;
68353;SDS011;55274;43.060;25.618;2023-07-13T11:56:00;4.22;;;2.28;;
68353;SDS011;55274;43.060;25.618;2023-07-13T11:58:26;7.43;;;2.70;;
68353;SDS011;55274;43.060;25.618;2023-07-13T12:00:53;10.32;;;4.25;;
68353;SDS011;55274;43.060;25.618;2023-07-13T12:05:56;6.32;;;2.55;;
68353;SDS011;55274;43.060;25.618;2023-07-13T12:08:23;7.30;;;2.92;;
68353;SDS011;55274;43.060;25.618;2023-07-13T12:10:55;54.80;;;6.30;;
68353;SDS011;55274;43.060;25.618;2023-07-13T12:13:22;7.43;;;2.58;;
68353;SDS011;55274;43.060;25.618;2023-07-13T12:15:49;9.20;;;2.90;;
68353;SDS011;55274;43.060;25.618;2023-07-13T12:18:20;4.40;;;2.80;;
68353;SDS011;55274;43.060;25.618;2023-07-13T12:20:51;8.15;;;2.97;;
68353;SDS011;55274;43.060;25.618;2023-07-13T12:23:34;4.63;;;2.78;;
68353;SDS011;55274;43.060;25.618;2023-07-13T12:26:04;5.18;;;2.92;;
68353;SDS011;55274;43.060;25.618;2023-07-13T12:28:33;3.88;;;2.90;;
68353;SDS011;55274;43.060;25.618;2023-07-13T12:31:05;8.75;;;2.85;;
68353;SDS011;55274;43.060;25.618;2023-07-13T12:33:47;3.90;;;2.55;;
68353;SDS011;55274;43.060;25.618;2023-07-13T12:36:20;4.20;;;2.80;;
68353;SDS011;55274;43.060;25.618;2023-07-13T12:38:46;9.38;;;4.28;;
68353;SDS011;55274;43.060;25.618;2023-07-13T12:41:14;5.18;;;2.90;;
68353;SDS011;55274;43.060;25.618;2023-07-13T12:43:40;7.22;;;3.10;;
68353;SDS011;55274;43.060;25.618;2023-07-13T12:46:20;4.88;;;2.75;;
68353;SDS011;55274;43.060;25.618;2023-07-13T12:48:52;10.55;;;2.97;;
68353;SDS011;55274;43.060;25.618;2023-07-13T12:51:22;8.38;;;2.80;;
68353;SDS011;55274;43.060;25.618;2023-07-13T12:54:05;11.98;;;3.58;;
68353;SDS011;55274;43.060;25.618;2023-07-13T12:56:38;8.90;;;3.47;;
68353;SDS011;55274;43.060;25.618;2023-07-13T12:59:04;6.57;;;2.70;;
68353;SDS011;55274;43.060;25.618;2023-07-13T13:01:32;9.10;;;3.05;;
68353;SDS011;55274;43.060;25.618;2023-07-13T13:04:02;5.03;;;3.22;;
68353;SDS011;55274;43.060;25.618;2023-07-13T13:06:36;26.75;;;4.88;;
68353;SDS011;55274;43.060;25.618;2023-07-13T13:09:02;6.22;;;3.50;;
68353;SDS011;55274;43.060;25.618;2023-07-13T13:11:29;16.73;;;3.70;;
68353;SDS011;55274;43.060;25.618;2023-07-13T13:13:56;24.60;;;4.28;;
68353;SDS011;55274;43.060;25.618;2023-07-13T13:18:53;6.25;;;3.15;;
68353;SDS011;55274;43.060;25.618;2023-07-13T13:21:22;4.85;;;2.78;;
68353;SDS011;55274;43.060;25.618;2023-07-13T13:23:49;6.88;;;3.08;;
68353;SDS011;55274;43.060;25.618;2023-07-13T13:26:18;13.00;;;4.22;;
68353;SDS011;55274;43.060;25.618;2023-07-13T13:28:45;13.85;;;4.22;;
68353;SDS011;55274;43.060;25.618;2023-07-13T13:31:12;9.48;;;3.78;;
68353;SDS011;55274;43.060;25.618;2023-07-13T13:33:42;5.38;;;3.05;;
68353;SDS011;55274;43.060;25.618;2023-07-13T13:36:28;5.55;;;3.08;;
68353;SDS011;55274;43.060;25.618;2023-07-13T13:38:55;10.55;;;4.78;;
68353;SDS011;55274;43.060;25.618;2023-07-13T13:41:21;9.43;;;4.57;;
68353;SDS011;55274;43.060;25.618;2023-07-13T13:43:47;6.47;;;3.50;;
68353;SDS011;55274;43.060;25.618;2023-07-13T13:46:14;5.93;;;3.33;;
68353;SDS011;55274;43.060;25.618;2023-07-13T13:48:42;6.20;;;3.33;;
68353;SDS011;55274;43.060;25.618;2023-07-13T13:51:18;8.32;;;4.85;;
68353;SDS011;55274;43.060;25.618;2023-07-13T13:53:45;8.95;;;3.90;;
68353;SDS011;55274;43.060;25.618;2023-07-13T13:56:13;15.23;;;4.57;;
68353;SDS011;55274;43.060;25.618;2023-07-13T13:58:39;19.98;;;5.15;;
68353;SDS011;55274;43.060;25.618;2023-07-13T14:01:11;8.38;;;4.72;;
68353;SDS011;55274;43.060;25.618;2023-07-13T14:03:39;15.18;;;4.97;;
68353;SDS011;55274;43.060;25.618;2023-07-13T14:06:05;8.90;;;3.90;;
68353;SDS011;55274;43.060;25.618;2023-07-13T14:08:33;4.88;;;3.80;;
68353;SDS011;55274;43.060;25.618;2023-07-13T14:10:58;40.50;;;5.78;;
68353;SDS011;55274;43.060;25.618;2023-07-13T14:13:26;8.55;;;4.05;;
68353;SDS011;55274;43.060;25.618;2023-07-13T14:16:02;6.78;;;3.20;;
68353;SDS011;55274;43.060;25.618;2023-07-13T14:18:40;7.47;;;4.15;;
68353;SDS011;55274;43.060;25.618;2023-07-13T14:21:16;8.18;;;3.75;;
68353;SDS011;55274;43.060;25.618;2023-07-13T14:23:44;9.35;;;3.88;;
68353;SDS011;55274;43.060;25.618;2023-07-13T14:26:15;13.32;;;3.63;;
68353;SDS011;55274;43.060;25.618;2023-07-13T14:28:44;5.68;;;3.42;;
68353;SDS011;55274;43.060;25.618;2023-07-13T14:31:12;7.68;;;3.20;;
68353;SDS011;55274;43.060;25.618;2023-07-13T14:33:39;5.97;;;3.22;;
68353;SDS011;55274;43.060;25.618;2023-07-13T14:38:50;5.80;;;3.35;;
68353;SDS011;55274;43.060;25.618;2023-07-13T14:41:16;11.05;;;3.60;;
68353;SDS011;55274;43.060;25.618;2023-07-13T14:43:42;7.05;;;3.78;;
68353;SDS011;55274;43.060;25.618;2023-07-13T14:46:11;4.65;;;3.30;;
68353;SDS011;55274;43.060;25.618;2023-07-13T14:48:54;6.15;;;3.40;;
68353;SDS011;55274;43.060;25.618;2023-07-13T14:51:32;5.57;;;3.60;;
68353;SDS011;55274;43.060;25.618;2023-07-13T14:54:03;7.95;;;3.50;;
68353;SDS011;55274;43.060;25.618;2023-07-13T14:56:30;5.57;;;3.28;;
68353;SDS011;55274;43.060;25.618;2023-07-13T14:59:02;7.40;;;3.45;;
68353;SDS011;55274;43.060;25.618;2023-07-13T15:01:30;6.43;;;3.17;;
68353;SDS011;55274;43.060;25.618;2023-07-13T15:07:23;7.07;;;3.65;;
68353;SDS011;55274;43.060;25.618;2023-07-13T15:10:20;26.10;;;4.82;;
68353;SDS011;55274;43.060;25.618;2023-07-13T15:18:59;5.93;;;3.17;;
68353;SDS011;55274;43.060;25.618;2023-07-13T15:22:07;6.63;;;3.40;;
68353;SDS011;55274;43.060;25.618;2023-07-13T15:24:34;5.70;;;3.83;;
68353;SDS011;55274;43.060;25.618;2023-07-13T15:27:18;6.60;;;3.78;;
68353;SDS011;55274;43.060;25.618;2023-07-13T15:30:58;16.48;;;4.22;;
68353;SDS011;55274;43.060;25.618;2023-07-13T15:34:07;5.93;;;3.83;;
68353;SDS011;55274;43.060;25.618;2023-07-13T15:37:42;59.58;;;8.10;;
68353;SDS011;55274;43.060;25.618;2023-07-13T15:40:12;17.92;;;5.28;;